createdAt,value
2019-03-30T00:00:09.193Z,79.90
2019-03-30T00:02:35.472Z,79.90
2019-03-30T00:04:56.930Z,80.30
2019-03-30T00:07:18.209Z,80.00
2019-03-30T00:09:39.427Z,79.50
2019-03-30T00:12:00.617Z,79.60
2019-03-30T00:14:21.843Z,79.60
2019-03-30T00:16:43.063Z,80.70
2019-03-30T00:19:04.401Z,80.70
2019-03-30T00:21:27.686Z,81.00
2019-03-30T00:23:48.935Z,81.10
2019-03-30T00:26:10.249Z,80.80
2019-03-30T00:28:31.468Z,80.80
2019-03-30T00:30:52.670Z,80.90
2019-03-30T00:33:13.910Z,80.70
2019-03-30T00:35:36.416Z,80.90
2019-03-30T00:37:57.766Z,81.10
2019-03-30T00:40:18.955Z,81.10
2019-03-30T00:42:40.228Z,81.00
2019-03-30T00:45:01.835Z,80.80
2019-03-30T00:47:23.157Z,80.90
2019-03-30T00:49:49.676Z,80.60
2019-03-30T00:52:07.770Z,80.60
2019-03-30T00:54:28.986Z,80.60
2019-03-30T00:56:50.171Z,80.90
2019-03-30T00:59:11.386Z,81.00
2019-03-30T01:01:32.606Z,81.20
2019-03-30T01:03:53.818Z,81.00
2019-03-30T01:06:34.897Z,81.20
2019-03-30T01:08:56.130Z,81.20
2019-03-30T01:11:17.411Z,81.90
2019-03-30T01:13:38.618Z,81.90
2019-03-30T01:15:59.852Z,83.10
2019-03-30T01:18:21.085Z,83.10
2019-03-30T01:20:42.273Z,83.70
2019-03-30T01:23:03.647Z,83.50
2019-03-30T01:25:25.029Z,83.00
2019-03-30T01:27:46.266Z,84.10
2019-03-30T01:30:22.005Z,83.70
2019-03-30T01:32:31.039Z,83.50
2019-03-30T01:34:52.236Z,83.70
2019-03-30T01:37:13.431Z,83.40
2019-03-30T01:39:34.650Z,83.30
2019-03-30T01:41:55.853Z,83.20
2019-03-30T01:44:17.097Z,83.50
2019-03-30T01:46:38.296Z,83.50
2019-03-30T01:48:59.525Z,83.70
2019-03-30T01:51:20.750Z,84.00
2019-03-30T01:53:41.958Z,84.30
2019-03-30T01:56:03.247Z,84.60
2019-03-30T01:58:24.438Z,84.80
2019-03-30T02:00:45.683Z,84.80
2019-03-30T02:03:06.913Z,85.00
2019-03-30T02:05:28.141Z,84.90
2019-03-30T02:07:49.333Z,85.00
2019-03-30T02:10:15.025Z,84.90
2019-03-30T02:12:36.331Z,85.10
2019-03-30T02:14:57.564Z,85.10
2019-03-30T02:17:20.246Z,86.20
2019-03-30T02:19:42.013Z,85.70
2019-03-30T02:22:03.276Z,86.10
2019-03-30T02:24:24.541Z,86.60
2019-03-30T02:26:50.106Z,86.60
2019-03-30T02:29:11.334Z,86.50
2019-03-30T02:31:32.560Z,86.30
2019-03-30T02:33:53.968Z,86.30
2019-03-30T02:36:15.253Z,86.40
2019-03-30T02:38:36.453Z,86.70
2019-03-30T02:40:57.681Z,86.70
2019-03-30T02:43:19.867Z,86.80
2019-03-30T02:45:41.095Z,87.00
2019-03-30T02:48:02.392Z,87.20
2019-03-30T02:50:23.809Z,87.10
2019-03-30T02:52:45.061Z,87.10
2019-03-30T02:55:06.531Z,88.20
2019-03-30T02:57:27.924Z,87.60
2019-03-30T02:59:49.164Z,87.80
2019-03-30T03:02:10.407Z,89.30
2019-03-30T03:04:31.719Z,88.60
2019-03-30T03:06:52.912Z,88.50
2019-03-30T03:09:14.138Z,88.80
2019-03-30T03:11:35.974Z,89.30
2019-03-30T03:13:57.250Z,89.40
2019-03-30T03:16:18.467Z,89.60
2019-03-30T03:18:39.771Z,89.80
2019-03-30T03:21:08.084Z,89.90
2019-03-30T03:23:24.104Z,90.10
2019-03-30T03:25:45.322Z,90.50
2019-03-30T03:28:06.625Z,90.30
2019-03-30T03:30:27.919Z,90.20
2019-03-30T03:32:49.125Z,90.30
2019-03-30T03:35:10.534Z,90.50
2019-03-30T03:37:44.536Z,90.60
2019-03-30T03:39:54.948Z,90.50
2019-03-30T03:42:16.132Z,90.70
2019-03-30T03:44:37.730Z,90.80
2019-03-30T03:46:59.060Z,90.40
2019-03-30T03:49:20.313Z,90.50
2019-03-30T03:51:41.827Z,90.70
2019-03-30T03:54:03.169Z,90.70
2019-03-30T03:56:24.524Z,90.80
2019-03-30T03:58:46.339Z,91.00
2019-03-30T04:01:08.576Z,90.90
2019-03-30T04:03:32.168Z,90.90
2019-03-30T04:05:56.881Z,90.90
2019-03-30T04:08:19.116Z,91.00
2019-03-30T04:10:40.426Z,91.00
2019-03-30T04:13:17.801Z,90.90
2019-03-30T04:15:39.024Z,90.80
2019-03-30T04:18:00.351Z,90.80
2019-03-30T04:20:22.377Z,90.80
2019-03-30T04:22:43.610Z,91.00
2019-03-30T04:25:05.438Z,91.10
2019-03-30T04:27:26.638Z,91.20
2019-03-30T04:29:47.885Z,91.30
2019-03-30T04:32:09.158Z,91.40
2019-03-30T04:34:30.371Z,91.50
2019-03-30T04:36:51.614Z,91.40
2019-03-30T04:39:12.815Z,91.50
2019-03-30T04:41:34.073Z,91.40
2019-03-30T04:43:55.267Z,91.30
2019-03-30T04:46:16.489Z,91.30
2019-03-30T04:48:37.730Z,91.30
2019-03-30T04:50:58.945Z,91.40
2019-03-30T04:53:20.282Z,91.40
2019-03-30T04:55:41.494Z,91.30
2019-03-30T04:58:02.711Z,91.30
2019-03-30T05:00:23.950Z,91.30
2019-03-30T05:02:46.019Z,91.50
2019-03-30T05:05:07.468Z,91.70
2019-03-30T05:07:28.689Z,91.80
2019-03-30T05:09:49.907Z,91.70
2019-03-30T05:12:11.143Z,91.70
2019-03-30T05:14:32.548Z,91.60
2019-03-30T05:16:53.876Z,91.70
2019-03-30T05:19:30.201Z,91.70
2019-03-30T05:21:51.431Z,91.70
2019-03-30T05:24:15.907Z,91.80
2019-03-30T05:26:37.222Z,91.60
2019-03-30T05:28:58.435Z,91.80
2019-03-30T05:31:19.731Z,92.00
2019-03-30T05:33:40.939Z,92.00
2019-03-30T05:36:02.165Z,92.10
2019-03-30T05:38:23.382Z,91.90
2019-03-30T05:40:44.578Z,91.90
2019-03-30T05:43:05.810Z,91.80
2019-03-30T05:45:27.009Z,91.60
2019-03-30T05:47:54.316Z,91.30
2019-03-30T05:50:15.601Z,91.30
2019-03-30T05:52:36.902Z,91.30
2019-03-30T05:54:58.122Z,91.20
2019-03-30T05:57:19.406Z,90.90
2019-03-30T05:59:40.605Z,90.80
2019-03-30T06:02:01.866Z,90.60
2019-03-30T06:04:27.895Z,90.50
2019-03-30T06:06:49.125Z,90.10
2019-03-30T06:09:10.334Z,90.20
2019-03-30T06:11:31.545Z,89.00
2019-03-30T06:13:52.740Z,88.50
2019-03-30T06:16:13.965Z,88.50
2019-03-30T06:18:35.232Z,87.90
2019-03-30T06:20:56.689Z,87.80
2019-03-30T06:23:19.638Z,87.80
2019-03-30T06:25:41.436Z,87.10
2019-03-30T06:28:02.648Z,86.30
2019-03-30T06:30:25.966Z,85.20
2019-03-30T06:32:47.170Z,84.60
2019-03-30T06:35:08.753Z,84.20
2019-03-30T06:37:30.020Z,83.90
2019-03-30T06:39:51.251Z,83.20
2019-03-30T06:42:12.535Z,83.20
2019-03-30T06:44:33.734Z,83.10
2019-03-30T06:46:54.940Z,82.80
2019-03-30T06:49:19.772Z,83.10
2019-03-30T06:51:40.975Z,82.70
2019-03-30T06:54:02.279Z,82.00
2019-03-30T06:56:23.496Z,81.40
2019-03-30T06:58:44.709Z,81.10
2019-03-30T07:01:05.921Z,80.50
2019-03-30T07:03:27.432Z,80.00
2019-03-30T07:05:48.749Z,79.30
2019-03-30T07:08:13.177Z,80.40
2019-03-30T07:10:38.218Z,79.80
2019-03-30T07:13:01.609Z,78.30
2019-03-30T07:15:26.303Z,77.80
2019-03-30T07:17:59.489Z,77.80
2019-03-30T07:20:26.158Z,77.20
2019-03-30T07:22:47.509Z,76.50
2019-03-30T07:25:08.797Z,76.30
2019-03-30T07:27:30.018Z,75.50
2019-03-30T07:29:51.202Z,75.00
2019-03-30T07:32:12.393Z,74.10
2019-03-30T07:34:33.615Z,72.70
2019-03-30T07:36:55.767Z,72.90
2019-03-30T07:39:17.048Z,72.50
2019-03-30T07:41:58.182Z,71.90
2019-03-30T07:44:19.378Z,70.90
2019-03-30T07:46:40.601Z,70.80
2019-03-30T07:49:02.010Z,70.20
2019-03-30T07:51:23.703Z,69.60
2019-03-30T07:53:45.212Z,69.10
2019-03-30T07:56:08.642Z,68.80
2019-03-30T07:58:29.551Z,68.50
2019-03-30T08:00:50.774Z,68.20
2019-03-30T08:03:12.029Z,67.80
2019-03-30T08:05:35.157Z,66.90
2019-03-30T08:07:56.450Z,67.20
2019-03-30T08:10:17.668Z,65.70
2019-03-30T08:12:38.927Z,66.00
2019-03-30T08:15:00.373Z,65.70
2019-03-30T08:17:21.613Z,65.10
2019-03-30T08:19:50.191Z,65.70
2019-03-30T08:22:09.978Z,65.40
2019-03-30T08:24:31.208Z,65.00
2019-03-30T08:26:52.398Z,63.80
2019-03-30T08:29:13.668Z,63.70
2019-03-30T08:31:34.950Z,63.00
2019-03-30T08:33:56.213Z,62.60
2019-03-30T08:36:17.725Z,62.90
2019-03-30T08:38:39.005Z,63.20
2019-03-30T08:41:00.311Z,62.00
2019-03-30T08:43:21.684Z,63.20
2019-03-30T08:45:42.976Z,62.30
2019-03-30T08:48:04.657Z,62.10
2019-03-30T08:50:26.529Z,62.50
2019-03-30T08:52:48.358Z,61.60
2019-03-30T08:55:11.536Z,61.00
2019-03-30T08:57:33.279Z,61.20
2019-03-30T08:59:54.630Z,60.70
2019-03-30T09:02:16.503Z,60.40
2019-03-30T09:04:37.893Z,59.10
2019-03-30T09:06:59.867Z,58.80
2019-03-30T09:09:22.051Z,59.60
2019-03-30T09:11:43.894Z,59.10
2019-03-30T09:14:11.861Z,59.40
2019-03-30T09:16:42.332Z,58.20
2019-03-30T09:19:04.064Z,57.70
2019-03-30T09:21:27.513Z,58.20
2019-03-30T09:24:10.909Z,57.40
2019-03-30T09:26:32.321Z,57.10
2019-03-30T09:29:12.072Z,56.80
2019-03-30T09:31:33.624Z,57.00
2019-03-30T09:33:55.121Z,57.00
2019-03-30T09:36:16.652Z,56.70
2019-03-30T09:38:38.368Z,56.10
2019-03-30T09:40:59.756Z,55.60
2019-03-30T09:43:21.080Z,55.60
2019-03-30T09:45:42.347Z,55.70
2019-03-30T09:48:03.694Z,55.50
2019-03-30T09:50:24.993Z,55.00
2019-03-30T09:52:46.386Z,54.40
2019-03-30T09:55:07.835Z,54.10
2019-03-30T09:57:29.264Z,53.70
2019-03-30T09:59:50.520Z,53.50
2019-03-30T10:02:11.874Z,53.50
2019-03-30T10:04:33.200Z,53.00
2019-03-30T10:06:54.744Z,52.70
2019-03-30T10:09:18.570Z,52.60
2019-03-30T10:11:39.874Z,53.10
2019-03-30T10:14:01.079Z,52.20
2019-03-30T10:16:22.455Z,52.30
2019-03-30T10:18:44.746Z,52.10
2019-03-30T10:21:05.981Z,50.90
2019-03-30T10:23:27.286Z,51.00
2019-03-30T10:25:48.519Z,49.70
2019-03-30T10:28:09.717Z,49.10
2019-03-30T10:30:30.951Z,49.10
2019-03-30T10:32:52.717Z,49.60
2019-03-30T10:35:14.087Z,49.20
2019-03-30T10:37:35.809Z,49.60
2019-03-30T10:40:00.331Z,48.80
2019-03-30T10:42:21.893Z,47.70
2019-03-30T10:44:43.111Z,47.40
2019-03-30T10:47:04.395Z,46.50
2019-03-30T10:49:25.779Z,46.60
2019-03-30T10:51:46.983Z,46.50
2019-03-30T10:54:08.202Z,45.50
2019-03-30T10:56:29.509Z,45.10
2019-03-30T10:58:50.701Z,44.80
2019-03-30T11:01:11.912Z,43.80
2019-03-30T11:03:33.113Z,45.10
2019-03-30T11:05:54.317Z,44.80
2019-03-30T11:08:15.513Z,44.80
2019-03-30T11:10:36.889Z,45.10
2019-03-30T11:12:58.244Z,44.30
2019-03-30T11:15:19.434Z,43.40
2019-03-30T11:17:40.648Z,43.30
2019-03-30T11:20:01.837Z,42.80
2019-03-30T11:22:23.126Z,42.00
2019-03-30T11:24:46.129Z,41.60
2019-03-30T11:27:07.346Z,41.80
2019-03-30T11:29:28.736Z,41.40
2019-03-30T11:31:50.038Z,41.20
2019-03-30T11:34:11.244Z,41.30
2019-03-30T11:36:32.452Z,38.90
2019-03-30T11:38:53.646Z,39.50
2019-03-30T11:41:14.851Z,39.90
2019-03-30T11:43:36.058Z,39.10
2019-03-30T11:45:57.251Z,39.30
2019-03-30T11:48:18.530Z,38.80
2019-03-30T11:50:39.737Z,37.90
2019-03-30T11:53:00.968Z,37.90
2019-03-30T11:55:22.613Z,37.70
2019-03-30T11:57:44.282Z,38.00
2019-03-30T12:00:06.266Z,38.20
2019-03-30T12:02:28.468Z,38.20
2019-03-30T12:04:50.091Z,38.80
2019-03-30T12:07:11.401Z,38.90
2019-03-30T12:09:32.586Z,38.50
2019-03-30T12:11:53.910Z,36.90
2019-03-30T12:14:15.149Z,37.40
2019-03-30T12:16:36.449Z,37.50
2019-03-30T12:18:58.016Z,38.00
2019-03-30T12:21:19.355Z,37.70
2019-03-30T12:23:42.681Z,36.80
2019-03-30T12:26:03.729Z,37.10
2019-03-30T12:28:25.135Z,36.00
2019-03-30T12:30:46.342Z,36.10
2019-03-30T12:33:07.532Z,35.90
2019-03-30T12:35:28.737Z,35.20
2019-03-30T12:37:54.932Z,34.60
2019-03-30T12:40:16.244Z,33.90
2019-03-30T12:42:37.439Z,34.10
2019-03-30T12:44:59.640Z,34.40
2019-03-30T12:47:20.861Z,33.00
2019-03-30T12:49:45.078Z,33.20
2019-03-30T12:52:05.197Z,33.00
2019-03-30T12:54:26.493Z,31.20
2019-03-30T12:56:49.017Z,31.50
2019-03-30T12:59:10.335Z,32.30
2019-03-30T13:01:31.553Z,32.30
2019-03-30T13:03:52.858Z,29.90
2019-03-30T13:06:14.057Z,29.90
2019-03-30T13:08:35.252Z,29.60
2019-03-30T13:10:56.451Z,29.50
2019-03-30T13:13:17.705Z,29.40
2019-03-30T13:15:39.212Z,29.50
2019-03-30T13:18:00.504Z,29.10
2019-03-30T13:20:21.702Z,29.00
2019-03-30T13:22:42.900Z,28.90
2019-03-30T13:25:04.534Z,28.30
2019-03-30T13:27:25.733Z,28.40
2019-03-30T13:29:46.967Z,28.10
2019-03-30T13:32:08.269Z,28.00
2019-03-30T13:34:29.777Z,28.50
2019-03-30T13:36:50.975Z,28.40
2019-03-30T13:39:12.277Z,27.20
2019-03-30T13:41:34.390Z,27.90
2019-03-30T13:43:55.583Z,28.10
2019-03-30T13:46:16.785Z,28.40
2019-03-30T13:48:38.013Z,27.50
2019-03-30T13:51:05.325Z,27.70
2019-03-30T13:53:26.558Z,27.40
2019-03-30T13:55:47.868Z,26.10
2019-03-30T13:58:09.324Z,27.00
2019-03-30T14:00:30.542Z,27.00
2019-03-30T14:02:51.853Z,27.20
2019-03-30T14:05:13.177Z,27.20
2019-03-30T14:07:34.520Z,27.50
2019-03-30T14:09:55.750Z,28.10
2019-03-30T14:12:16.961Z,27.50
2019-03-30T14:14:38.157Z,27.30
2019-03-30T14:16:59.444Z,27.60
2019-03-30T14:19:20.665Z,28.00
2019-03-30T14:21:42.397Z,26.50
2019-03-30T14:24:03.613Z,27.60
2019-03-30T14:26:31.307Z,27.90
2019-03-30T14:28:47.931Z,28.00
2019-03-30T14:31:09.125Z,26.70
2019-03-30T14:33:30.346Z,26.40
2019-03-30T14:35:51.525Z,26.30
2019-03-30T14:38:12.719Z,27.00
2019-03-30T14:40:36.973Z,27.60
2019-03-30T14:42:58.268Z,26.80
2019-03-30T14:45:19.469Z,26.70
2019-03-30T14:47:44.188Z,26.20
2019-03-30T14:50:06.911Z,26.80
2019-03-30T14:52:28.108Z,26.00
2019-03-30T14:54:52.908Z,26.70
2019-03-30T14:57:26.051Z,27.40
2019-03-30T14:59:47.378Z,27.00
2019-03-30T15:02:08.685Z,27.40
2019-03-30T15:04:29.968Z,27.20
2019-03-30T15:06:51.299Z,26.40
2019-03-30T15:09:12.900Z,27.00
2019-03-30T15:11:34.080Z,26.20
2019-03-30T15:13:55.301Z,25.80
2019-03-30T15:16:37.726Z,26.40
2019-03-30T15:18:59.076Z,26.70
2019-03-30T15:21:20.317Z,26.10
2019-03-30T15:23:41.567Z,25.70
2019-03-30T15:26:02.833Z,26.40
2019-03-30T15:28:24.028Z,25.20
2019-03-30T15:30:46.282Z,25.60
2019-03-30T15:33:09.436Z,25.70
2019-03-30T15:35:31.038Z,25.50
2019-03-30T15:37:52.306Z,25.60
2019-03-30T15:40:14.105Z,25.80
2019-03-30T15:42:35.303Z,26.10
2019-03-30T15:44:56.629Z,26.00
2019-03-30T15:47:30.156Z,26.80
2019-03-30T15:49:51.398Z,26.40
2019-03-30T15:52:21.989Z,26.30
2019-03-30T15:54:43.335Z,26.40
2019-03-30T15:57:13.966Z,26.60
2019-03-30T15:59:27.683Z,26.20
2019-03-30T16:01:48.984Z,25.90
2019-03-30T16:04:10.200Z,26.20
2019-03-30T16:06:31.455Z,26.40
2019-03-30T16:08:52.654Z,27.10
2019-03-30T16:11:13.911Z,27.20
2019-03-30T16:13:35.580Z,27.30
2019-03-30T16:15:56.869Z,26.60
2019-03-30T16:18:18.084Z,27.00
2019-03-30T16:20:39.317Z,27.10
2019-03-30T16:23:00.680Z,26.70
2019-03-30T16:25:21.920Z,26.70
2019-03-30T16:27:43.163Z,26.90
2019-03-30T16:30:06.859Z,27.00
2019-03-30T16:32:28.070Z,27.30
2019-03-30T16:34:49.267Z,27.20
2019-03-30T16:37:10.489Z,28.10
2019-03-30T16:39:34.679Z,28.80
2019-03-30T16:41:54.988Z,26.70
2019-03-30T16:44:16.187Z,27.80
2019-03-30T16:46:38.693Z,28.00
2019-03-30T16:48:59.951Z,28.00
2019-03-30T16:51:21.263Z,28.00
2019-03-30T16:53:42.476Z,28.80
2019-03-30T16:56:03.686Z,29.10
2019-03-30T16:58:24.949Z,28.50
2019-03-30T17:00:56.185Z,28.70
2019-03-30T17:03:09.277Z,29.00
2019-03-30T17:05:30.670Z,29.10
2019-03-30T17:07:51.863Z,29.20
2019-03-30T17:10:13.069Z,29.00
2019-03-30T17:12:34.266Z,29.50
2019-03-30T17:14:55.484Z,29.60
2019-03-30T17:17:16.819Z,30.50
2019-03-30T17:19:38.015Z,31.00
2019-03-30T17:21:59.226Z,31.30
2019-03-30T17:24:20.536Z,31.80
2019-03-30T17:26:41.925Z,32.00
2019-03-30T17:29:04.442Z,32.60
2019-03-30T17:31:25.675Z,33.60
2019-03-30T17:33:46.859Z,33.50
2019-03-30T17:36:08.083Z,33.20
2019-03-30T17:38:29.299Z,33.80
2019-03-30T17:40:50.509Z,34.70
2019-03-30T17:43:11.721Z,34.60
2019-03-30T17:45:32.929Z,34.50
2019-03-30T17:47:54.157Z,34.70
2019-03-30T17:50:16.028Z,34.60
2019-03-30T17:52:37.222Z,34.60
2019-03-30T17:54:58.425Z,35.10
2019-03-30T17:57:19.659Z,35.60
2019-03-30T17:59:40.969Z,36.00
2019-03-30T18:02:02.178Z,37.20
2019-03-30T18:04:23.491Z,37.50
2019-03-30T18:06:44.688Z,37.80
2019-03-30T18:09:05.942Z,38.10
2019-03-30T18:11:27.731Z,39.20
2019-03-30T18:13:48.952Z,39.80
2019-03-30T18:16:10.164Z,40.10
2019-03-30T18:18:31.824Z,40.90
2019-03-30T18:20:55.239Z,41.70
2019-03-30T18:23:16.532Z,42.60
2019-03-30T18:25:37.773Z,43.00
2019-03-30T18:27:59.082Z,43.40
2019-03-30T18:30:32.524Z,43.00
2019-03-30T18:32:53.753Z,43.50
2019-03-30T18:35:15.002Z,43.70
2019-03-30T18:37:56.244Z,44.00
2019-03-30T18:40:29.076Z,44.20
2019-03-30T18:42:50.289Z,44.50
2019-03-30T18:45:15.296Z,44.50
2019-03-30T18:47:36.505Z,44.80
2019-03-30T18:49:58.930Z,45.20
2019-03-30T18:52:20.197Z,45.20
2019-03-30T18:54:42.397Z,45.70
2019-03-30T18:57:03.737Z,46.50
2019-03-30T18:59:25.026Z,48.20
2019-03-30T19:01:46.512Z,48.70
2019-03-30T19:04:07.713Z,48.60
2019-03-30T19:06:28.937Z,48.10
2019-03-30T19:08:50.223Z,48.40
2019-03-30T19:11:11.457Z,48.70
2019-03-30T19:13:40.057Z,49.00
2019-03-30T19:16:01.450Z,49.70
2019-03-30T19:18:22.883Z,49.70
2019-03-30T19:20:44.217Z,49.90
2019-03-30T19:23:05.656Z,50.10
2019-03-30T19:25:29.566Z,50.20
2019-03-30T19:27:49.991Z,50.30
2019-03-30T19:30:11.713Z,50.20
2019-03-30T19:32:32.925Z,50.20
2019-03-30T19:34:54.324Z,51.00
2019-03-30T19:37:15.540Z,50.50
2019-03-30T19:39:36.770Z,51.00
2019-03-30T19:41:58.165Z,51.90
2019-03-30T19:44:19.397Z,52.20
2019-03-30T19:46:40.613Z,52.80
2019-03-30T19:49:01.837Z,52.00
2019-03-30T19:51:27.928Z,51.70
2019-03-30T19:53:51.270Z,51.50
2019-03-30T19:56:12.494Z,51.40
2019-03-30T19:58:33.679Z,51.30
2019-03-30T20:00:54.940Z,52.10
2019-03-30T20:03:16.146Z,52.00
2019-03-30T20:05:37.348Z,52.10
2019-03-30T20:08:11.472Z,52.20
2019-03-30T20:10:23.704Z,53.30
2019-03-30T20:12:44.905Z,53.20
2019-03-30T20:15:08.898Z,52.90
2019-03-30T20:17:30.177Z,52.80
2019-03-30T20:19:51.397Z,52.30
2019-03-30T20:22:15.075Z,52.30
2019-03-30T20:24:38.323Z,52.30
2019-03-30T20:27:01.430Z,53.10
2019-03-30T20:29:25.553Z,53.60
2019-03-30T20:31:48.889Z,54.50
2019-03-30T20:34:10.130Z,54.10
2019-03-30T20:36:31.335Z,53.60
2019-03-30T20:38:52.572Z,53.70
2019-03-30T20:41:13.942Z,54.00
2019-03-30T20:43:35.316Z,54.10
2019-03-30T20:45:58.092Z,54.80
2019-03-30T20:48:23.940Z,56.30
2019-03-30T20:50:45.233Z,56.40
2019-03-30T20:53:08.348Z,57.00
2019-03-30T20:55:29.654Z,56.70
2019-03-30T20:57:52.228Z,56.20
2019-03-30T21:00:14.333Z,56.60
2019-03-30T21:02:35.556Z,55.80
2019-03-30T21:04:56.778Z,55.80
2019-03-30T21:07:18.306Z,56.10
2019-03-30T21:09:39.536Z,56.50
2019-03-30T21:12:00.730Z,56.70
2019-03-30T21:14:21.925Z,56.70
2019-03-30T21:16:43.110Z,57.20
2019-03-30T21:19:04.315Z,57.30
2019-03-30T21:21:25.571Z,57.70
2019-03-30T21:23:46.906Z,58.20
2019-03-30T21:26:08.309Z,58.50
2019-03-30T21:28:29.536Z,58.50
2019-03-30T21:30:50.752Z,58.30
2019-03-30T21:33:12.035Z,58.30
2019-03-30T21:35:33.336Z,58.20
2019-03-30T21:37:54.601Z,58.60
2019-03-30T21:40:15.821Z,58.80
2019-03-30T21:42:37.005Z,58.80
2019-03-30T21:44:58.228Z,59.40
2019-03-30T21:47:19.434Z,59.00
2019-03-30T21:49:41.922Z,59.00
2019-03-30T21:52:03.511Z,59.20
2019-03-30T21:54:24.721Z,59.50
2019-03-30T21:56:45.992Z,60.30
2019-03-30T21:59:07.197Z,60.30
2019-03-30T22:01:28.405Z,61.80
2019-03-30T22:03:49.706Z,62.00
2019-03-30T22:06:10.916Z,61.20
2019-03-30T22:08:32.420Z,61.50
2019-03-30T22:10:53.596Z,63.70
2019-03-30T22:13:14.926Z,61.40
2019-03-30T22:15:36.150Z,61.20
2019-03-30T22:17:57.556Z,62.50
2019-03-30T22:20:21.306Z,62.50
2019-03-30T22:22:41.880Z,62.80
2019-03-30T22:25:04.477Z,63.30
2019-03-30T22:27:25.748Z,63.30
2019-03-30T22:29:46.974Z,63.40
2019-03-30T22:32:08.176Z,63.50
2019-03-30T22:34:29.391Z,64.20
2019-03-30T22:36:50.684Z,64.20
2019-03-30T22:39:11.897Z,63.70
2019-03-30T22:41:33.091Z,64.00
2019-03-30T22:43:54.329Z,64.20
2019-03-30T22:46:15.575Z,64.80
2019-03-30T22:48:36.904Z,65.50
2019-03-30T22:50:58.101Z,65.90
2019-03-30T22:53:19.309Z,65.60
2019-03-30T22:55:40.533Z,65.40
2019-03-30T22:58:01.771Z,65.30
2019-03-30T23:00:38.950Z,65.00
2019-03-30T23:03:04.098Z,65.20
2019-03-30T23:05:26.343Z,64.90
2019-03-30T23:07:47.530Z,65.00
2019-03-30T23:10:08.723Z,66.20
2019-03-30T23:12:29.975Z,66.50
2019-03-30T23:14:51.210Z,66.00
2019-03-30T23:17:12.509Z,66.20
2019-03-30T23:19:33.697Z,66.40
2019-03-30T23:21:54.914Z,66.70
2019-03-30T23:24:16.140Z,66.60
2019-03-30T23:26:37.508Z,66.60
2019-03-30T23:28:59.534Z,66.70
2019-03-30T23:31:21.046Z,66.80
2019-03-30T23:33:42.295Z,67.00
2019-03-30T23:36:03.472Z,67.00
2019-03-30T23:38:24.713Z,66.90
2019-03-30T23:40:45.934Z,66.90
2019-03-30T23:43:07.138Z,67.30
2019-03-30T23:45:28.344Z,67.30
2019-03-30T23:47:49.559Z,67.30
2019-03-30T23:50:10.766Z,67.30
2019-03-30T23:52:32.470Z,67.70
2019-03-30T23:54:53.676Z,67.90
2019-03-30T23:57:14.877Z,67.80
2019-03-30T23:59:36.128Z,67.70
